createdAt,value
2018-05-09T00:01:58.364Z,93.55
2018-05-09T00:04:27.872Z,93.63
2018-05-09T00:06:56.524Z,93.77
2018-05-09T00:09:26.133Z,93.89
2018-05-09T00:11:54.753Z,93.95
2018-05-09T00:14:23.963Z,93.91
2018-05-09T00:16:53.263Z,93.79
2018-05-09T00:19:22.502Z,93.79
2018-05-09T00:21:51.826Z,93.88
2018-05-09T00:24:20.465Z,93.99
2018-05-09T00:26:49.975Z,94.12
2018-05-09T00:29:18.615Z,94.16
2018-05-09T00:31:47.158Z,94.05
2018-05-09T00:34:16.595Z,93.99
2018-05-09T00:36:45.151Z,94.07
2018-05-09T00:39:14.099Z,94.19
2018-05-09T00:41:43.615Z,94.31
2018-05-09T00:44:12.480Z,94.40
2018-05-09T00:46:41.697Z,94.49
2018-05-09T00:49:10.450Z,94.54
2018-05-09T00:51:39.734Z,94.62
2018-05-09T00:54:36.748Z,94.62
2018-05-09T00:57:06.480Z,94.70
2018-05-09T00:59:35.192Z,94.56
2018-05-09T01:02:03.766Z,94.54
2018-05-09T01:04:33.880Z,94.45
2018-05-09T01:07:02.412Z,94.39
2018-05-09T01:09:31.713Z,94.41
2018-05-09T01:12:00.422Z,94.39
2018-05-09T01:14:30.002Z,94.41
2018-05-09T01:16:58.654Z,94.41
2018-05-09T01:19:27.288Z,94.37
2018-05-09T01:21:56.388Z,94.17
2018-05-09T01:24:25.994Z,93.77
2018-05-09T01:26:55.543Z,93.51
2018-05-09T01:29:25.103Z,93.38
2018-05-09T01:31:53.615Z,93.23
2018-05-09T01:34:22.095Z,93.27
2018-05-09T01:36:51.580Z,93.11
2018-05-09T01:39:20.292Z,93.19
2018-05-09T01:41:48.894Z,93.10
2018-05-09T01:44:17.669Z,93.03
2018-05-09T01:46:46.170Z,93.06
2018-05-09T01:49:14.760Z,93.14
2018-05-09T01:51:43.266Z,93.12
2018-05-09T01:54:12.653Z,93.17
2018-05-09T01:56:42.789Z,93.08
2018-05-09T01:59:11.533Z,92.97
2018-05-09T02:01:40.134Z,92.73
2018-05-09T02:04:09.547Z,92.80
2018-05-09T02:06:38.126Z,92.88
2018-05-09T02:09:06.829Z,92.98
2018-05-09T02:11:35.468Z,93.13
2018-05-09T02:14:05.017Z,93.26
2018-05-09T02:16:33.521Z,93.44
2018-05-09T02:19:02.176Z,93.57
2018-05-09T02:21:30.664Z,93.64
2018-05-09T02:23:59.543Z,93.74
2018-05-09T02:26:29.052Z,93.93
2018-05-09T02:28:58.932Z,93.96
2018-05-09T02:31:27.458Z,93.99
2018-05-09T02:33:56.867Z,94.00
2018-05-09T02:36:25.534Z,94.04
2018-05-09T02:38:54.202Z,93.99
2018-05-09T02:41:22.730Z,93.87
2018-05-09T02:43:52.034Z,93.84
2018-05-09T02:46:21.503Z,93.83
2018-05-09T02:48:49.988Z,93.77
2018-05-09T02:51:18.808Z,93.88
2018-05-09T02:53:47.396Z,94.00
2018-05-09T02:56:16.717Z,94.06
2018-05-09T02:58:46.855Z,94.01
2018-05-09T03:01:16.413Z,93.68
2018-05-09T03:03:45.843Z,93.69
2018-05-09T03:06:14.418Z,93.71
2018-05-09T03:08:43.900Z,93.75
2018-05-09T03:11:12.552Z,93.94
2018-05-09T03:13:41.102Z,94.15
2018-05-09T03:16:09.901Z,94.42
2018-05-09T03:18:38.687Z,94.50
2018-05-09T03:21:07.310Z,94.67
2018-05-09T03:23:35.993Z,94.72
2018-05-09T03:26:05.231Z,94.76
2018-05-09T03:28:34.032Z,94.78
2018-05-09T03:31:02.865Z,94.72
2018-05-09T03:33:31.501Z,94.57
2018-05-09T03:36:00.061Z,94.48
2018-05-09T03:38:28.704Z,94.45
2018-05-09T03:40:57.263Z,94.40
2018-05-09T03:43:25.847Z,94.42
2018-05-09T03:45:55.294Z,94.43
2018-05-09T03:48:23.915Z,94.41
2018-05-09T03:50:52.500Z,94.36
2018-05-09T03:53:21.098Z,94.37
2018-05-09T03:55:50.789Z,94.33
2018-05-09T03:58:19.867Z,94.38
2018-05-09T04:00:49.535Z,94.32
2018-05-09T04:03:36.043Z,94.24
2018-05-09T04:06:23.243Z,94.15
2018-05-09T04:09:09.459Z,94.05
2018-05-09T04:11:38.737Z,94.02
2018-05-09T04:14:07.337Z,93.90
2018-05-09T04:16:36.560Z,93.90
2018-05-09T04:19:05.858Z,93.99
2018-05-09T04:21:35.479Z,93.89
2018-05-09T04:24:04.780Z,93.90
2018-05-09T04:26:33.229Z,93.90
2018-05-09T04:29:02.035Z,93.95
2018-05-09T04:31:30.593Z,93.95
2018-05-09T04:33:59.175Z,93.93
2018-05-09T04:36:27.777Z,93.96
2018-05-09T04:38:56.421Z,93.92
2018-05-09T04:41:25.852Z,93.87
2018-05-09T04:43:54.518Z,93.91
2018-05-09T04:46:23.887Z,93.86
2018-05-09T04:48:53.713Z,93.77
2018-05-09T04:51:24.108Z,93.79
2018-05-09T04:53:52.714Z,93.52
2018-05-09T04:56:21.225Z,93.55
2018-05-09T04:58:50.008Z,93.57
2018-05-09T05:01:18.549Z,93.61
2018-05-09T05:03:47.214Z,93.57
2018-05-09T05:06:16.018Z,93.59
2018-05-09T05:08:44.785Z,93.58
2018-05-09T05:11:13.547Z,93.27
2018-05-09T05:13:42.357Z,93.40
2018-05-09T05:16:11.112Z,93.19
2018-05-09T05:18:39.976Z,93.16
2018-05-09T05:21:09.237Z,92.97
2018-05-09T05:23:42.408Z,92.81
2018-05-09T05:26:11.386Z,92.97
2018-05-09T05:28:40.977Z,92.92
2018-05-09T05:31:09.788Z,92.81
2018-05-09T05:33:38.596Z,92.75
2018-05-09T05:36:07.383Z,92.50
2018-05-09T05:38:35.929Z,91.95
2018-05-09T05:41:05.478Z,91.94
2018-05-09T05:43:34.319Z,91.72
2018-05-09T05:46:03.066Z,91.53
2018-05-09T05:48:32.451Z,91.58
2018-05-09T05:51:02.072Z,91.38
2018-05-09T05:53:31.283Z,91.09
2018-05-09T05:56:00.030Z,90.77
2018-05-09T05:58:28.722Z,90.55
2018-05-09T06:00:57.724Z,90.60
2018-05-09T06:03:26.362Z,90.09
2018-05-09T06:05:54.897Z,90.24
2018-05-09T06:08:23.669Z,90.17
2018-05-09T06:10:52.214Z,89.91
2018-05-09T06:13:21.494Z,89.69
2018-05-09T06:15:50.188Z,89.56
2018-05-09T06:18:18.789Z,89.56
2018-05-09T06:20:48.203Z,89.09
2018-05-09T06:23:17.084Z,88.83
2018-05-09T06:25:46.080Z,88.96
2018-05-09T06:28:14.716Z,88.68
2018-05-09T06:30:44.003Z,88.60
2018-05-09T06:33:12.609Z,88.19
2018-05-09T06:35:41.175Z,87.47
2018-05-09T06:38:09.781Z,88.04
2018-05-09T06:40:38.434Z,87.78
2018-05-09T06:43:07.071Z,87.75
2018-05-09T06:45:35.697Z,87.21
2018-05-09T06:48:04.264Z,87.29
2018-05-09T06:50:32.922Z,86.90
2018-05-09T06:53:01.482Z,86.92
2018-05-09T06:55:31.616Z,86.65
2018-05-09T06:58:01.383Z,85.82
2018-05-09T07:00:29.999Z,86.03
2018-05-09T07:02:58.749Z,85.89
2018-05-09T07:05:27.482Z,85.62
2018-05-09T07:07:56.161Z,85.55
2018-05-09T07:10:24.950Z,85.39
2018-05-09T07:12:54.133Z,85.00
2018-05-09T07:15:23.146Z,85.31
2018-05-09T07:17:52.744Z,85.74
2018-05-09T07:20:22.402Z,85.94
2018-05-09T07:22:51.182Z,85.81
2018-05-09T07:25:21.531Z,85.08
2018-05-09T07:27:52.075Z,84.18
2018-05-09T07:30:21.081Z,84.23
2018-05-09T07:32:49.771Z,83.99
2018-05-09T07:35:18.574Z,83.71
2018-05-09T07:37:48.206Z,83.57
2018-05-09T07:40:18.004Z,82.56
2018-05-09T07:42:49.028Z,81.91
2018-05-09T07:45:20.007Z,80.71
2018-05-09T07:47:50.369Z,78.11
2018-05-09T07:50:20.759Z,78.43
2018-05-09T07:52:50.499Z,78.75
2018-05-09T07:55:21.707Z,78.12
2018-05-09T07:57:50.434Z,77.31
2018-05-09T08:00:20.116Z,76.01
2018-05-09T08:02:49.764Z,75.75
2018-05-09T08:05:18.740Z,75.73
2018-05-09T08:07:47.722Z,74.56
2018-05-09T08:10:16.417Z,74.60
2018-05-09T08:12:45.112Z,74.96
2018-05-09T08:15:13.982Z,75.41
2018-05-09T08:17:43.914Z,73.12
2018-05-09T08:20:12.938Z,76.51
2018-05-09T08:22:42.115Z,73.56
2018-05-09T08:25:10.747Z,70.27
2018-05-09T08:27:39.427Z,69.82
2018-05-09T08:30:08.532Z,68.71
2018-05-09T08:32:37.347Z,65.21
2018-05-09T08:35:06.344Z,64.09
2018-05-09T08:37:35.076Z,64.11
2018-05-09T08:40:04.095Z,65.08
2018-05-09T08:42:32.928Z,61.50
2018-05-09T08:45:01.672Z,59.82
2018-05-09T08:47:30.992Z,54.18
2018-05-09T08:50:00.560Z,52.01
2018-05-09T08:52:30.466Z,51.17
2018-05-09T08:55:00.024Z,49.94
2018-05-09T08:57:29.529Z,50.14
2018-05-09T08:59:58.162Z,49.07
2018-05-09T09:02:26.829Z,47.65
2018-05-09T09:04:55.836Z,46.06
2018-05-09T09:07:26.792Z,45.08
2018-05-09T09:09:56.092Z,43.05
2018-05-09T09:12:24.785Z,42.56
2018-05-09T09:14:53.297Z,41.63
2018-05-09T09:17:22.324Z,39.81
2018-05-09T09:19:50.950Z,39.21
2018-05-09T09:22:20.798Z,39.09
2018-05-09T09:24:49.821Z,38.22
2018-05-09T09:27:19.077Z,39.17
2018-05-09T09:29:47.713Z,39.83
2018-05-09T09:32:17.091Z,38.25
2018-05-09T09:34:45.853Z,38.86
2018-05-09T09:37:15.191Z,36.48
2018-05-09T09:39:44.168Z,35.23
2018-05-09T09:42:12.946Z,36.05
2018-05-09T09:44:42.803Z,38.18
2018-05-09T09:47:11.880Z,39.30
2018-05-09T09:49:40.801Z,36.20
2018-05-09T09:52:09.805Z,33.83
2018-05-09T09:54:39.193Z,33.10
2018-05-09T09:57:09.202Z,35.16
2018-05-09T09:59:37.979Z,34.89
2018-05-09T10:02:06.681Z,35.23
2018-05-09T10:04:35.289Z,34.69
2018-05-09T10:07:03.902Z,35.85
2018-05-09T10:09:32.559Z,34.58
2018-05-09T10:12:01.207Z,34.58
2018-05-09T10:14:30.643Z,31.71
2018-05-09T10:16:59.936Z,30.75
2018-05-09T10:19:28.972Z,30.52
2018-05-09T10:21:57.986Z,33.17
2018-05-09T10:24:27.617Z,34.18
2018-05-09T10:26:57.606Z,40.69
2018-05-09T10:29:29.371Z,42.51
2018-05-09T10:31:58.537Z,43.32
2018-05-09T10:34:28.792Z,40.68
2018-05-09T10:36:57.491Z,40.58
2018-05-09T10:39:26.400Z,38.43
2018-05-09T10:41:55.157Z,39.45
2018-05-09T10:44:25.105Z,39.72
2018-05-09T10:46:54.397Z,36.92
2018-05-09T10:49:23.098Z,35.74
2018-05-09T10:51:52.475Z,33.00
2018-05-09T10:54:22.389Z,31.93
2018-05-09T10:56:51.611Z,32.57
2018-05-09T10:59:21.095Z,31.25
2018-05-09T11:01:50.002Z,30.99
2018-05-09T11:04:18.706Z,29.93
2018-05-09T11:06:47.509Z,29.55
2018-05-09T11:09:16.047Z,29.78
2018-05-09T11:11:45.552Z,32.34
2018-05-09T11:14:15.611Z,33.21
2018-05-09T11:16:45.005Z,35.19
2018-05-09T11:19:14.019Z,34.62
2018-05-09T11:21:44.373Z,39.60
2018-05-09T11:24:13.370Z,40.01
2018-05-09T11:26:42.459Z,42.48
2018-05-09T11:29:11.959Z,37.71
2018-05-09T11:31:40.739Z,36.98
2018-05-09T11:34:09.229Z,35.62
2018-05-09T11:36:37.842Z,33.10
2018-05-09T11:39:06.904Z,32.07
2018-05-09T11:41:35.808Z,31.05
2018-05-09T11:44:04.517Z,38.10
2018-05-09T11:46:33.407Z,35.12
2018-05-09T11:49:02.898Z,34.14
2018-05-09T11:51:32.126Z,33.11
2018-05-09T11:54:01.151Z,32.46
2018-05-09T11:56:31.192Z,33.70
2018-05-09T11:59:00.807Z,34.17
2018-05-09T12:01:29.634Z,39.63
2018-05-09T12:03:58.737Z,38.11
2018-05-09T12:06:28.156Z,36.65
2018-05-09T12:08:57.526Z,36.39
2018-05-09T12:11:27.557Z,36.56
2018-05-09T12:13:58.004Z,34.92
2018-05-09T12:16:27.391Z,33.18
2018-05-09T12:18:58.048Z,33.91
2018-05-09T12:21:27.069Z,33.62
2018-05-09T12:23:57.244Z,30.82
2018-05-09T12:26:26.236Z,30.98
2018-05-09T12:28:54.920Z,30.25
2018-05-09T12:31:23.719Z,28.96
2018-05-09T12:33:53.114Z,27.77
2018-05-09T12:36:21.713Z,27.88
2018-05-09T12:38:50.465Z,29.37
2018-05-09T12:41:19.256Z,30.27
2018-05-09T12:43:47.922Z,28.71
2018-05-09T12:46:16.538Z,28.23
2018-05-09T12:48:45.159Z,27.46
2018-05-09T12:51:14.621Z,27.85
2018-05-09T12:53:43.914Z,27.27
2018-05-09T12:56:14.422Z,28.43
2018-05-09T12:58:44.340Z,27.75
2018-05-09T13:01:15.113Z,28.74
2018-05-09T13:03:43.957Z,28.09
2018-05-09T13:06:14.776Z,29.19
2018-05-09T13:08:45.076Z,29.20
2018-05-09T13:11:14.743Z,30.40
2018-05-09T13:13:44.215Z,31.42
2018-05-09T13:16:13.192Z,30.50
2018-05-09T13:18:42.959Z,29.98
2018-05-09T13:21:13.293Z,31.73
2018-05-09T13:23:43.851Z,32.88
2018-05-09T13:26:13.509Z,35.17
2018-05-09T13:28:42.201Z,35.52
2018-05-09T13:31:12.023Z,35.95
2018-05-09T13:33:41.786Z,38.06
2018-05-09T13:36:10.672Z,38.85
2018-05-09T13:38:41.183Z,38.57
2018-05-09T13:41:09.847Z,39.26
2018-05-09T13:43:38.441Z,39.71
2018-05-09T13:46:07.167Z,41.46
2018-05-09T13:48:35.902Z,41.63
2018-05-09T13:51:05.342Z,42.03
2018-05-09T13:53:34.950Z,45.87
2018-05-09T13:56:03.882Z,46.46
2018-05-09T13:58:32.630Z,47.89
2018-05-09T14:01:01.455Z,60.73
2018-05-09T14:03:30.360Z,67.92
2018-05-09T14:05:59.114Z,73.31
2018-05-09T14:08:27.998Z,75.48
2018-05-09T14:10:56.845Z,78.11
2018-05-09T14:13:26.368Z,79.47
2018-05-09T14:15:54.984Z,77.12
2018-05-09T14:18:24.374Z,78.29
2018-05-09T14:20:53.426Z,80.35
2018-05-09T14:23:22.833Z,82.54
2018-05-09T14:25:52.131Z,76.31
2018-05-09T14:28:20.988Z,77.50
2018-05-09T14:30:50.923Z,74.84
2018-05-09T14:33:19.796Z,74.47
2018-05-09T14:35:48.629Z,73.23
2018-05-09T14:38:17.823Z,75.34
2018-05-09T14:40:47.809Z,76.26
2018-05-09T14:43:16.966Z,76.77
2018-05-09T14:45:45.679Z,78.67
2018-05-09T14:48:15.213Z,81.15
2018-05-09T14:50:44.217Z,81.04
2018-05-09T14:53:13.235Z,82.46
2018-05-09T14:55:43.385Z,83.50
2018-05-09T14:58:13.411Z,82.63
2018-05-09T15:00:42.083Z,82.50
2018-05-09T15:03:11.709Z,82.84
2018-05-09T15:05:40.502Z,83.57
2018-05-09T15:08:09.250Z,83.73
2018-05-09T15:10:38.349Z,82.74
2018-05-09T15:13:07.045Z,83.22
2018-05-09T15:15:35.718Z,81.25
2018-05-09T15:18:04.388Z,82.00
2018-05-09T15:20:34.562Z,82.97
2018-05-09T15:23:04.168Z,83.78
2018-05-09T15:25:33.347Z,85.46
2018-05-09T15:28:03.407Z,86.27
2018-05-09T15:30:32.166Z,85.92
2018-05-09T15:33:08.451Z,86.25
2018-05-09T15:35:38.965Z,84.79
2018-05-09T15:38:11.583Z,85.79
2018-05-09T15:40:41.065Z,85.10
2018-05-09T15:43:12.496Z,85.06
2018-05-09T15:45:45.615Z,84.61
2018-05-09T15:48:20.132Z,84.99
2018-05-09T15:50:51.458Z,85.03
2018-05-09T15:53:21.591Z,84.34
2018-05-09T15:55:51.707Z,85.48
2018-05-09T15:58:21.479Z,85.14
2018-05-09T16:00:51.610Z,86.01
2018-05-09T16:03:21.581Z,84.88
2018-05-09T16:05:51.496Z,85.04
2018-05-09T16:08:20.370Z,83.73
2018-05-09T16:10:49.096Z,81.37
2018-05-09T16:13:21.529Z,79.96
2018-05-09T16:15:50.273Z,79.39
2018-05-09T16:18:19.435Z,76.75
2018-05-09T16:20:48.906Z,77.64
2018-05-09T16:23:19.673Z,77.83
2018-05-09T16:25:49.724Z,78.19
2018-05-09T16:28:18.491Z,78.31
2018-05-09T16:30:47.930Z,79.32
2018-05-09T16:33:18.089Z,79.67
2018-05-09T16:35:46.925Z,80.03
2018-05-09T16:38:17.683Z,80.62
2018-05-09T16:40:47.263Z,79.78
2018-05-09T16:43:17.395Z,80.29
2018-05-09T16:45:46.953Z,80.85
2018-05-09T16:48:15.634Z,79.93
2018-05-09T16:50:45.550Z,81.16
2018-05-09T16:53:15.358Z,82.35
2018-05-09T16:55:44.556Z,81.58
2018-05-09T16:58:13.965Z,82.02
2018-05-09T17:00:43.233Z,82.29
2018-05-09T17:03:12.792Z,82.06
2018-05-09T17:05:41.524Z,83.43
2018-05-09T17:08:10.595Z,83.24
2018-05-09T17:10:39.279Z,81.27
2018-05-09T17:13:08.391Z,82.90
2018-05-09T17:15:37.180Z,81.48
2018-05-09T17:18:08.796Z,81.66
2018-05-09T17:20:39.422Z,82.59
2018-05-09T17:23:10.743Z,83.33
2018-05-09T17:25:40.599Z,83.55
2018-05-09T17:28:10.243Z,83.91
2018-05-09T17:30:40.097Z,85.42
2018-05-09T17:33:09.039Z,86.03
2018-05-09T17:35:40.079Z,86.24
2018-05-09T17:38:09.381Z,86.35
2018-05-09T17:40:38.288Z,85.49
2018-05-09T17:43:07.056Z,85.89
2018-05-09T17:45:37.520Z,86.46
2018-05-09T17:48:06.172Z,86.67
2018-05-09T17:50:35.285Z,84.41
2018-05-09T17:53:05.088Z,84.54
2018-05-09T17:55:34.190Z,84.96
2018-05-09T17:58:03.212Z,85.19
2018-05-09T18:00:32.151Z,85.19
2018-05-09T18:03:00.842Z,85.53
2018-05-09T18:05:29.551Z,86.04
2018-05-09T18:07:58.299Z,86.25
2018-05-09T18:10:27.027Z,87.17
2018-05-09T18:12:57.733Z,86.42
2018-05-09T18:15:26.343Z,86.42
2018-05-09T18:17:54.946Z,86.51
2018-05-09T18:20:23.782Z,86.97
2018-05-09T18:22:52.970Z,87.10
2018-05-09T18:25:22.442Z,87.54
2018-05-09T18:27:52.567Z,87.99
2018-05-09T18:30:22.113Z,87.89
2018-05-09T18:32:51.549Z,87.79
2018-05-09T18:35:21.062Z,88.12
2018-05-09T18:37:52.454Z,88.17
2018-05-09T18:40:21.140Z,87.97
2018-05-09T18:42:50.585Z,88.17
2018-05-09T18:45:19.203Z,88.22
2018-05-09T18:47:48.794Z,88.56
2018-05-09T18:50:18.674Z,89.01
2018-05-09T18:52:49.206Z,89.22
2018-05-09T18:55:19.216Z,88.96
2018-05-09T18:57:48.807Z,88.94
2018-05-09T19:00:19.464Z,89.17
2018-05-09T19:02:48.608Z,89.25
2018-05-09T19:05:17.254Z,89.35
2018-05-09T19:07:45.931Z,89.52
2018-05-09T19:10:16.269Z,89.53
2018-05-09T19:12:45.170Z,88.82
2018-05-09T19:15:18.135Z,89.06
2018-05-09T19:17:47.991Z,89.57
2018-05-09T19:20:17.617Z,89.74
2018-05-09T19:22:46.190Z,89.91
2018-05-09T19:25:14.967Z,89.70
2018-05-09T19:27:46.200Z,89.68
2018-05-09T19:30:15.867Z,89.60
2018-05-09T19:32:46.400Z,89.75
2018-05-09T19:35:15.216Z,89.84
2018-05-09T19:37:44.914Z,89.91
2018-05-09T19:40:19.237Z,89.94
2018-05-09T19:42:48.496Z,89.83
2018-05-09T19:45:18.280Z,89.73
2018-05-09T19:47:48.044Z,89.87
2018-05-09T19:50:17.419Z,89.93
2018-05-09T19:52:46.055Z,90.08
2018-05-09T19:55:14.783Z,89.91
2018-05-09T19:57:43.763Z,90.35
2018-05-09T20:00:13.128Z,90.16
2018-05-09T20:02:42.100Z,90.07
2018-05-09T20:05:10.920Z,89.96
2018-05-09T20:07:40.325Z,90.33
2018-05-09T20:10:11.352Z,90.54
2018-05-09T20:12:41.306Z,90.43
2018-05-09T20:15:10.328Z,90.34
2018-05-09T20:17:39.467Z,90.07
2018-05-09T20:20:09.894Z,90.00
2018-05-09T20:22:38.874Z,89.81
2018-05-09T20:25:08.532Z,89.99
2018-05-09T20:27:37.398Z,89.47
2018-05-09T20:30:12.253Z,89.79
2018-05-09T20:32:41.918Z,90.03
2018-05-09T20:35:11.782Z,90.08
2018-05-09T20:37:41.546Z,89.98
2018-05-09T20:40:11.227Z,89.67
2018-05-09T20:42:39.911Z,89.68
2018-05-09T20:45:08.873Z,89.67
2018-05-09T20:47:37.685Z,89.22
2018-05-09T20:50:06.679Z,89.32
2018-05-09T20:52:35.664Z,89.27
2018-05-09T20:58:10.425Z,89.70
2018-05-09T21:00:39.226Z,90.05
2018-05-09T21:03:07.931Z,90.41
2018-05-09T21:05:36.801Z,90.02
2018-05-09T21:08:06.918Z,90.13
2018-05-09T21:10:35.949Z,90.04
2018-05-09T21:13:04.555Z,89.95
2018-05-09T21:15:36.193Z,89.67
2018-05-09T21:18:04.983Z,89.64
2018-05-09T21:20:33.647Z,89.70
2018-05-09T21:23:02.357Z,89.60
2018-05-09T21:25:31.059Z,89.63
2018-05-09T21:28:00.048Z,89.50
2018-05-09T21:30:28.717Z,89.78
2018-05-09T21:32:57.320Z,90.00
2018-05-09T21:35:26.756Z,89.85
2018-05-09T21:37:55.670Z,89.59
2018-05-09T21:40:24.390Z,89.43
2018-05-09T21:42:53.825Z,89.12
2018-05-09T21:45:22.406Z,89.26
2018-05-09T21:47:51.009Z,89.45
2018-05-09T21:50:20.939Z,89.52
2018-05-09T21:52:49.548Z,89.01
2018-05-09T21:55:18.186Z,88.88
2018-05-09T21:57:46.755Z,89.22
2018-05-09T22:00:16.174Z,89.22
2018-05-09T22:02:45.546Z,88.93
2018-05-09T22:05:14.134Z,89.04
2018-05-09T22:07:42.789Z,89.18
2018-05-09T22:10:11.522Z,89.26
2018-05-09T22:12:40.508Z,89.41
2018-05-09T22:15:09.788Z,89.55
2018-05-09T22:17:39.423Z,89.46
2018-05-09T22:20:08.037Z,89.50
2018-05-09T22:22:36.648Z,89.67
2018-05-09T22:25:05.337Z,89.67
2018-05-09T22:27:34.006Z,89.29
2018-05-09T22:30:02.543Z,89.22
2018-05-09T22:32:31.251Z,89.31
2018-05-09T22:34:59.912Z,89.49
2018-05-09T22:37:29.311Z,89.33
2018-05-09T22:39:57.979Z,89.45
2018-05-09T22:42:26.600Z,88.80
2018-05-09T22:44:55.412Z,88.91
2018-05-09T22:47:24.330Z,89.15
2018-05-09T22:49:53.610Z,89.10
2018-05-09T22:52:23.668Z,89.26
2018-05-09T22:54:52.556Z,89.37
2018-05-09T22:57:21.274Z,89.44
2018-05-09T22:59:50.043Z,89.69
2018-05-09T23:02:18.867Z,89.71
2018-05-09T23:04:47.625Z,89.66
2018-05-09T23:07:16.442Z,89.80
2018-05-09T23:09:45.177Z,89.86
2018-05-09T23:12:13.951Z,89.88
2018-05-09T23:14:42.656Z,90.05
2018-05-09T23:17:11.570Z,90.23
2018-05-09T23:19:42.600Z,90.38
2018-05-09T23:22:12.562Z,90.55
2018-05-09T23:24:41.303Z,90.77
2018-05-09T23:27:10.085Z,90.94
2018-05-09T23:29:39.504Z,91.07
2018-05-09T23:32:08.594Z,91.32
2018-05-09T23:34:37.363Z,91.52
2018-05-09T23:37:06.580Z,91.78
2018-05-09T23:39:35.364Z,92.04
2018-05-09T23:42:04.123Z,92.10
2018-05-09T23:44:32.656Z,92.10
2018-05-09T23:47:02.052Z,91.69
2018-05-09T23:49:32.163Z,91.40
2018-05-09T23:52:01.371Z,91.14
2018-05-09T23:54:30.976Z,90.84
2018-05-09T23:57:00.474Z,90.10
2018-05-09T23:59:29.215Z,89.75
